Time;durP1;ratioP1;P1;durP2;ratioP2;P2;SDS_P1;SDS_P2;PMS_P1;PMS_P2;Temp;Humidity;BMP_temperature;BMP_pressure;BME280_temperature;BME280_humidity;BME280_pressure;Samples;Min_cycle;Max_cycle;Signal;HPM_P1;HPM_P2
2023/01/24 00:00:11;;;;;;;20.90;12.10;;;;;;;0.06;89.72;100861.31;5056188;28;20040;-80
2023/01/24 00:02:37;;;;;;;22.52;11.98;;;;;;;0.28;89.72;100871.63;5065522;28;20047;-80
2023/01/24 00:05:04;;;;;;;19.10;10.55;;;;;;;0.11;89.84;100862.56;5060945;28;20427;-80
2023/01/24 00:07:30;;;;;;;16.52;8.85;;;;;;;-0.17;89.50;100876.41;5072573;28;20040;-79
2023/01/24 00:09:55;;;;;;;15.93;10.15;;;;;;;-0.11;89.36;100881.97;5051225;28;20029;-80
2023/01/24 00:12:21;;;;;;;17.38;9.38;;;;;;;-0.18;89.63;100875.59;5044159;28;20399;-80
2023/01/24 00:14:46;;;;;;;19.35;11.02;;;;;;;0.05;91.57;100870.16;5061194;28;20060;-79
2023/01/24 00:17:12;;;;;;;14.75;9.88;;;;;;;-0.13;89.52;100880.41;5028481;28;20033;-79
2023/01/24 00:19:37;;;;;;;16.80;10.15;;;;;;;-0.10;89.49;100875.75;5065784;28;20476;-80
2023/01/24 00:22:04;;;;;;;15.82;9.07;;;;;;;-0.05;90.06;100876.22;5032140;28;20453;-80
2023/01/24 00:24:30;;;;;;;16.35;9.40;;;;;;;-0.22;89.21;100866.28;5059845;28;20025;-80
2023/01/24 00:26:55;;;;;;;16.33;9.07;;;;;;;-0.11;90.01;100868.84;5048018;28;20097;-80
2023/01/24 00:29:21;;;;;;;15.10;9.38;;;;;;;0.07;90.07;100884.00;5031702;28;20032;-80
2023/01/24 00:31:46;;;;;;;13.63;9.00;;;;;;;-0.04;88.65;100874.41;5063066;28;20039;-80
2023/01/24 00:34:12;;;;;;;14.45;8.65;;;;;;;-0.10;89.37;100888.06;5034276;28;20029;-80
2023/01/24 00:36:37;;;;;;;14.48;8.75;;;;;;;-0.12;89.07;100882.94;5030963;28;20041;-80
2023/01/24 00:39:02;;;;;;;15.80;8.88;;;;;;;0.00;89.93;100876.63;5027779;28;20032;-80
2023/01/24 00:41:28;;;;;;;15.93;9.05;;;;;;;0.01;88.64;100874.84;5043164;28;20024;-79
2023/01/24 00:43:53;;;;;;;14.38;8.23;;;;;;;-0.03;89.00;100873.44;5040424;28;20396;-79
2023/01/24 00:46:18;;;;;;;13.10;7.85;;;;;;;0.10;90.09;100858.31;5062577;28;20032;-79
2023/01/24 00:48:44;;;;;;;10.63;6.60;;;;;;;0.00;89.06;100858.25;5041832;28;20520;-79
2023/01/24 00:51:09;;;;;;;11.38;6.40;;;;;;;-0.03;89.16;100845.41;5064649;28;20040;-80
2023/01/24 00:53:35;;;;;;;12.00;6.93;;;;;;;0.08;88.81;100865.50;5053541;28;20123;-80
2023/01/24 00:56:00;;;;;;;9.95;6.57;;;;;;;0.00;88.38;100858.25;5044511;28;20133;-80
2023/01/24 00:58:25;;;;;;;9.40;6.93;;;;;;;0.27;88.72;100849.81;5056251;28;20170;-80
2023/01/24 01:00:55;;;;;;;10.05;6.68;;;;;;;0.06;89.08;100866.56;5034721;28;20032;-80
2023/01/24 01:03:20;;;;;;;11.27;6.20;;;;;;;0.39;89.20;100864.50;5060318;28;20033;-80
2023/01/24 01:05:45;;;;;;;8.23;5.40;;;;;;;0.12;87.69;100877.38;5041682;28;20515;-79
2023/01/24 01:08:11;;;;;;;8.57;5.25;;;;;;;-0.05;88.37;100873.59;5054691;28;20025;-80
2023/01/24 01:10:37;;;;;;;8.25;5.22;;;;;;;-0.02;88.39;100867.22;5048735;28;20181;-80
2023/01/24 01:13:03;;;;;;;7.55;5.10;;;;;;;0.02;87.87;100857.31;5038605;28;20553;-80
2023/01/24 01:15:29;;;;;;;13.00;5.43;;;;;;;0.01;88.31;100856.47;5064364;28;20170;-79
2023/01/24 01:17:56;;;;;;;8.95;5.60;;;;;;;0.47;89.82;100859.41;5045488;28;20033;-79
2023/01/24 01:20:21;;;;;;;10.05;5.72;;;;;;;0.30;88.33;100872.34;5056854;28;20488;-79
2023/01/24 01:22:46;;;;;;;8.63;5.25;;;;;;;0.15;88.53;100866.63;5063349;28;20032;-79
2023/01/24 01:25:12;;;;;;;14.25;5.97;;;;;;;0.30;88.22;100869.72;5029759;28;20082;-80
2023/01/24 01:27:37;;;;;;;11.13;6.50;;;;;;;0.18;89.15;100845.34;5055086;28;20041;-80
2023/01/24 01:30:03;;;;;;;9.63;5.78;;;;;;;0.54;90.05;100854.44;5032727;28;20084;-80
2023/01/24 01:32:29;;;;;;;8.30;5.25;;;;;;;-0.09;87.84;100843.28;5045548;28;20545;-80
2023/01/24 01:34:54;;;;;;;10.55;5.65;;;;;;;0.08;89.37;100859.41;5059484;28;20092;-79
2023/01/24 01:37:20;;;;;;;9.73;6.05;;;;;;;0.15;88.48;100856.13;5045278;28;20044;-80
2023/01/24 01:39:45;;;;;;;8.80;6.03;;;;;;;0.17;89.24;100859.44;5054814;28;20088;-80
2023/01/24 01:42:10;;;;;;;10.57;5.68;;;;;;;0.21;88.94;100852.97;5055014;28;20035;-80
2023/01/24 01:44:38;;;;;;;8.57;5.68;;;;;;;0.19;87.88;100856.69;5044642;28;20480;-80
2023/01/24 01:47:33;;;;;;;8.00;6.07;;;;;;;0.10;88.08;100867.97;5030041;28;20037;-80
2023/01/24 01:50:14;;;;;;;10.45;6.32;;;;;;;-0.07;88.03;100872.06;5064411;28;20028;-80
2023/01/24 01:52:42;;;;;;;8.98;6.20;;;;;;;-0.12;88.84;100876.84;5055323;28;20082;-80
2023/01/24 01:55:32;;;;;;;11.80;6.25;;;;;;;0.01;89.16;100864.34;5028072;28;20131;-80
2023/01/24 01:57:59;;;;;;;11.52;6.25;;;;;;;-0.02;88.77;100859.34;5041060;28;20032;-80
2023/01/24 02:00:26;;;;;;;8.95;6.47;;;;;;;0.04;88.60;100873.75;5063571;28;20028;-80
2023/01/24 02:03:37;;;;;;;12.40;6.88;;;;;;;0.06;88.10;100874.44;5061786;28;20020;-80
2023/01/24 02:05:45;;;;;;;9.98;6.50;;;;;;;-0.01;87.94;100882.88;5062041;28;20045;-80
2023/01/24 02:08:16;;;;;;;10.27;6.32;;;;;;;-0.04;88.74;100880.47;5061449;28;20039;-80
2023/01/24 02:13:25;;;;;;;8.82;5.88;;;;;;;-0.08;89.28;100880.88;5062048;28;20050;-80
2023/01/24 02:16:02;;;;;;;10.35;6.63;;;;;;;-0.09;88.30;100882.66;5032823;28;20028;-80
2023/01/24 02:18:28;;;;;;;10.63;5.90;;;;;;;-0.11;89.10;100873.28;5043360;28;20086;-79
2023/01/24 02:20:54;;;;;;;9.63;6.45;;;;;;;0.06;88.40;100879.69;5036577;28;20052;-80
2023/01/24 02:23:44;;;;;;;9.20;5.97;;;;;;;0.06;88.46;100887.56;5044054;28;20033;-80
2023/01/24 02:26:10;;;;;;;10.65;6.10;;;;;;;0.12;88.01;100887.03;5066566;28;20020;-79
2023/01/24 02:28:38;;;;;;;12.38;6.75;;;;;;;-0.11;88.19;100883.78;5057771;28;20396;-79
2023/01/24 02:31:04;;;;;;;7.28;5.50;;;;;;;-0.07;88.34;100888.59;5039831;28;20028;-79
2023/01/24 02:33:31;;;;;;;10.13;6.78;;;;;;;-0.12;87.94;100882.94;5058770;28;20392;-80
2023/01/24 02:36:28;;;;;;;11.40;6.88;;;;;;;0.02;88.65;100892.28;5064677;28;20144;-80
2023/01/24 02:39:02;;;;;;;12.27;6.07;;;;;;;-0.15;88.79;100883.19;5021035;28;20059;-80
2023/01/24 02:41:55;;;;;;;10.73;6.57;;;;;;;0.23;89.61;100886.94;5057798;28;20024;-80
2023/01/24 02:44:35;;;;;;;8.38;6.30;;;;;;;0.02;87.48;100875.69;5034707;28;20052;-80
2023/01/24 02:47:02;;;;;;;11.98;6.75;;;;;;;0.03;87.81;100882.56;5077498;28;20036;-79
2023/01/24 02:49:28;;;;;;;10.80;6.40;;;;;;;-0.01;87.27;100872.38;5058248;28;20401;-79
2023/01/24 02:54:38;;;;;;;9.73;6.70;;;;;;;-0.03;88.42;100883.94;5039487;28;20451;-79
2023/01/24 02:59:47;;;;;;;11.25;7.18;;;;;;;-0.05;88.03;100873.59;5047059;28;20067;-80
2023/01/24 03:02:12;;;;;;;10.40;6.10;;;;;;;-0.15;87.89;100880.56;5040946;28;20087;-79
2023/01/24 03:04:38;;;;;;;9.50;6.28;;;;;;;-0.11;88.44;100879.34;5060060;28;20566;-79
2023/01/24 03:07:03;;;;;;;9.30;6.25;;;;;;;-0.15;88.60;100870.06;5035439;28;20506;-80
2023/01/24 03:09:35;;;;;;;9.98;7.00;;;;;;;0.09;88.90;100859.25;5019964;28;20511;-80
2023/01/24 03:36:39;;;;;;;11.27;7.95;;;;;;;0.08;88.07;100859.41;5058690;28;20407;-80
2023/01/24 03:41:48;;;;;;;9.60;7.70;;;;;;;-0.13;87.84;100865.53;5062096;28;20117;-80
2023/01/24 03:44:14;;;;;;;10.13;7.32;;;;;;;-0.08;88.49;100867.75;5045035;28;20112;-80
2023/01/24 03:46:39;;;;;;;13.35;9.23;;;;;;;-0.14;88.33;100861.25;5057993;28;20077;-80
2023/01/24 03:49:08;;;;;;;10.65;7.47;;;;;;;-0.32;88.03;100862.81;5060673;28;20073;-80
2023/01/24 03:54:19;;;;;;;12.50;8.13;;;;;;;0.08;88.60;100862.03;5028735;28;20073;-80
2023/01/24 03:56:44;;;;;;;10.15;8.50;;;;;;;-0.02;88.42;100859.34;5064366;28;20256;-80
2023/01/24 03:59:09;;;;;;;12.63;9.35;;;;;;;-0.29;88.07;100857.31;5042172;28;20090;-79
2023/01/24 04:01:35;;;;;;;11.52;8.23;;;;;;;-0.32;89.02;100865.44;5035534;28;20042;-79
2023/01/24 04:04:01;;;;;;;13.25;9.25;;;;;;;-0.06;88.42;100858.78;5044737;28;20028;-80
2023/01/24 04:06:26;;;;;;;12.45;8.38;;;;;;;-0.03;88.76;100852.44;5046442;28;20021;-79
2023/01/24 04:08:51;;;;;;;12.98;9.23;;;;;;;-0.18;88.54;100853.75;5042074;28;20082;-79
2023/01/24 04:11:17;;;;;;;11.90;8.50;;;;;;;-0.31;88.86;100851.38;5063639;28;20032;-80
2023/01/24 04:13:43;;;;;;;12.23;7.97;;;;;;;-0.45;88.60;100851.69;5050248;28;20437;-79
2023/01/24 04:16:09;;;;;;;10.38;8.48;;;;;;;-0.23;89.52;100854.16;5060482;28;20024;-79
2023/01/24 04:18:36;;;;;;;13.13;9.18;;;;;;;-0.11;89.40;100853.09;5062357;28;20049;-80
2023/01/24 04:21:03;;;;;;;12.32;8.70;;;;;;;-0.21;88.25;100859.25;5044419;28;20033;-79
2023/01/24 04:23:28;;;;;;;12.40;8.35;;;;;;;-0.10;89.54;100862.66;5040700;28;20148;-79
2023/01/24 04:25:59;;;;;;;12.48;8.60;;;;;;;-0.28;88.31;100858.94;5039971;28;20037;-79
2023/01/24 04:28:25;;;;;;;10.63;7.88;;;;;;;-0.29;88.76;100833.69;5026701;28;20040;-80
2023/01/24 04:31:01;;;;;;;13.95;9.50;;;;;;;-0.30;88.83;100863.50;5055110;28;20024;-79
2023/01/24 04:33:27;;;;;;;14.70;9.63;;;;;;;-0.21;88.89;100849.59;5042063;28;20033;-80
2023/01/24 04:35:56;;;;;;;13.95;10.20;;;;;;;-0.23;88.72;100867.28;5039890;28;20036;-79
2023/01/24 04:38:21;;;;;;;11.95;8.25;;;;;;;-0.17;88.44;100861.50;5051490;28;20033;-80
2023/01/24 04:40:47;;;;;;;14.93;9.80;;;;;;;0.21;89.09;100857.38;5044792;28;20039;-80
2023/01/24 04:43:12;;;;;;;14.52;10.15;;;;;;;0.22;87.76;100856.44;5063022;28;20036;-80
2023/01/24 04:45:38;;;;;;;15.25;10.43;;;;;;;0.19;88.59;100857.53;5029461;28;20436;-80
2023/01/24 04:48:03;;;;;;;13.45;9.48;;;;;;;-0.07;88.43;100841.38;5038899;28;20032;-80
2023/01/24 04:50:28;;;;;;;13.50;10.45;;;;;;;0.06;87.97;100848.19;5046835;28;20044;-79
2023/01/24 04:52:54;;;;;;;13.82;10.45;;;;;;;-0.10;88.00;100848.69;5046354;28;20033;-79
2023/01/24 04:55:19;;;;;;;14.95;10.02;;;;;;;-0.28;87.95;100845.84;5060208;28;20040;-80
2023/01/24 04:57:45;;;;;;;14.02;8.90;;;;;;;0.02;89.82;100846.81;5057990;28;20025;-79
2023/01/24 05:00:11;;;;;;;15.25;9.60;;;;;;;-0.01;88.54;100837.41;5061245;28;20113;-80
2023/01/24 05:02:39;;;;;;;14.77;9.57;;;;;;;0.09;88.20;100850.56;5060261;28;20032;-79
2023/01/24 05:05:06;;;;;;;11.43;8.48;;;;;;;0.20;88.46;100843.41;5063224;28;20078;-79
2023/01/24 05:07:31;;;;;;;13.77;9.07;;;;;;;0.23;89.86;100842.31;5062449;28;20391;-79
2023/01/24 05:09:57;;;;;;;12.10;8.02;;;;;;;0.17;88.11;100862.06;5036871;28;20029;-79
2023/01/24 05:12:22;;;;;;;14.15;8.95;;;;;;;0.38;88.73;100848.84;5031198;28;20077;-80
2023/01/24 05:14:47;;;;;;;12.27;8.50;;;;;;;0.04;87.17;100847.50;5028557;28;20068;-79
2023/01/24 05:17:13;;;;;;;12.52;9.13;;;;;;;0.08;87.41;100849.75;5039012;28;20079;-79
2023/01/24 05:19:38;;;;;;;13.48;10.20;;;;;;;0.11;87.87;100867.03;5032097;28;20028;-79
2023/01/24 05:22:03;;;;;;;14.77;10.07;;;;;;;0.14;88.71;100866.75;5041245;28;20031;-79
2023/01/24 05:24:29;;;;;;;12.45;8.77;;;;;;;0.00;87.98;100854.81;5042482;28;20040;-79
2023/01/24 05:26:54;;;;;;;12.85;8.93;;;;;;;0.16;88.64;100870.06;5031272;28;20037;-79
2023/01/24 05:29:20;;;;;;;15.75;10.98;;;;;;;0.18;87.86;100862.88;5033850;28;20037;-79
2023/01/24 05:31:45;;;;;;;16.38;9.85;;;;;;;0.32;88.48;100865.16;5036715;28;20374;-79
2023/01/24 05:34:11;;;;;;;17.77;11.35;;;;;;;0.23;88.02;100868.56;5054387;28;20037;-79
2023/01/24 05:36:36;;;;;;;14.38;10.48;;;;;;;-0.12;88.00;100879.47;5028319;28;20044;-80
2023/01/24 05:39:01;;;;;;;16.52;10.20;;;;;;;0.17;88.06;100875.19;5074729;28;20066;-80
2023/01/24 05:41:27;;;;;;;15.70;10.48;;;;;;;0.11;88.31;100874.91;5043534;28;20033;-79
2023/01/24 05:43:52;;;;;;;11.93;9.23;;;;;;;0.23;87.38;100881.69;5037001;28;20236;-79
2023/01/24 05:46:20;;;;;;;15.23;9.00;;;;;;;-0.03;87.87;100871.66;5043494;28;20037;-79
2023/01/24 05:48:46;;;;;;;12.80;8.80;;;;;;;-0.38;87.52;100886.94;5041632;28;20087;-79
2023/01/24 05:51:15;;;;;;;11.35;8.45;;;;;;;-0.57;88.48;100865.84;5070496;28;20083;-79
2023/01/24 05:53:41;;;;;;;13.18;8.55;;;;;;;-0.58;88.61;100887.75;5049552;28;20094;-78
2023/01/24 05:56:13;;;;;;;13.45;7.38;;;;;;;-0.40;88.56;100885.41;5056252;28;20068;-79
2023/01/24 05:58:39;;;;;;;13.82;9.23;;;;;;;-0.11;88.72;100887.22;5071379;28;20483;-79
2023/01/24 06:01:09;;;;;;;12.68;10.20;;;;;;;0.19;88.51;100881.16;5076314;28;20488;-79
2023/01/24 06:03:37;;;;;;;14.18;10.07;;;;;;;-0.33;87.16;100876.88;5040761;28;20037;-79
2023/01/24 06:06:03;;;;;;;10.93;8.88;;;;;;;-0.08;89.14;100886.13;5069420;28;20471;-79
2023/01/24 06:08:28;;;;;;;13.85;8.65;;;;;;;-0.26;87.06;100891.13;5038061;28;20115;-79
2023/01/24 06:10:54;;;;;;;11.27;8.57;;;;;;;-0.49;87.54;100881.75;5046461;28;20321;-79
2023/01/24 06:13:19;;;;;;;16.75;8.95;;;;;;;-0.60;88.26;100876.56;5075499;28;20034;-79
2023/01/24 06:15:45;;;;;;;13.82;9.68;;;;;;;-0.24;88.87;100891.84;5040391;28;20033;-79
2023/01/24 06:18:14;;;;;;;15.50;10.05;;;;;;;0.02;87.77;100887.03;5062187;28;20027;-79
2023/01/24 06:20:40;;;;;;;16.75;10.00;;;;;;;-0.01;87.00;100901.22;5078262;28;20024;-79
2023/01/24 06:23:07;;;;;;;13.50;8.93;;;;;;;-0.05;87.16;100904.25;5059784;28;20123;-79
2023/01/24 06:25:33;;;;;;;15.18;10.40;;;;;;;0.42;88.42;100905.41;5055545;28;20029;-79
2023/01/24 06:27:58;;;;;;;17.85;11.13;;;;;;;0.56;86.80;100894.53;5043067;28;20048;-79
2023/01/24 06:30:24;;;;;;;16.48;10.40;;;;;;;0.28;87.68;100911.03;5049294;28;20025;-79
2023/01/24 06:33:04;;;;;;;16.90;10.68;;;;;;;-0.27;86.88;100918.34;5050835;28;20031;-78
2023/01/24 06:35:33;;;;;;;16.25;11.48;;;;;;;0.24;89.37;100918.31;5058532;28;20078;-78
2023/01/24 06:37:58;;;;;;;17.63;11.23;;;;;;;-0.14;86.72;100912.91;5051065;28;20040;-79
2023/01/24 06:40:24;;;;;;;14.93;10.18;;;;;;;0.10;88.05;100907.34;5073216;28;20058;-79
2023/01/24 06:42:51;;;;;;;15.85;10.13;;;;;;;-0.01;87.57;100924.84;5038075;28;20024;-79
2023/01/24 06:45:16;;;;;;;13.50;9.77;;;;;;;-0.10;87.07;100928.25;5086615;28;20119;-78
2023/01/24 06:47:42;;;;;;;16.25;10.48;;;;;;;-0.24;87.78;100915.44;5058000;28;20051;-78
2023/01/24 06:50:20;;;;;;;14.00;8.82;;;;;;;-0.45;87.01;100917.25;5054197;28;20051;-79
2023/01/24 06:52:46;;;;;;;11.15;7.93;;;;;;;-0.58;87.88;100921.00;5082102;28;20060;-79
2023/01/24 06:55:12;;;;;;;12.05;8.68;;;;;;;-0.58;88.24;100923.63;5059514;28;20036;-80
2023/01/24 06:57:38;;;;;;;14.75;9.60;;;;;;;-0.04;88.32;100927.72;5056371;28;20377;-79
2023/01/24 07:00:04;;;;;;;15.07;10.07;;;;;;;-0.01;87.93;100931.88;5034772;28;20389;-79
2023/01/24 07:02:30;;;;;;;14.18;9.05;;;;;;;-0.55;87.10;100929.47;5051124;28;20104;-78
2023/01/24 07:04:55;;;;;;;14.85;9.45;;;;;;;-0.23;89.08;100924.16;5050618;28;20032;-78
2023/01/24 07:07:21;;;;;;;15.27;10.48;;;;;;;-0.31;89.18;100934.47;5055044;28;20036;-78
2023/01/24 07:09:46;;;;;;;14.55;9.85;;;;;;;-0.34;87.92;100948.66;5040077;28;20103;-78
2023/01/24 07:12:11;;;;;;;17.77;10.63;;;;;;;-0.17;86.98;100939.38;5052493;28;20040;-78
2023/01/24 07:14:36;;;;;;;17.02;10.73;;;;;;;0.02;87.33;100949.19;5037425;28;20028;-79
2023/01/24 07:17:02;;;;;;;17.73;11.32;;;;;;;-0.15;86.97;100948.78;5057455;28;20122;-78
2023/01/24 07:19:28;;;;;;;14.68;10.10;;;;;;;0.39;88.32;100952.97;5084198;28;20055;-78
2023/01/24 07:21:56;;;;;;;19.77;11.15;;;;;;;-0.35;87.08;100948.81;5058410;28;20044;-78
2023/01/24 07:24:25;;;;;;;21.30;11.63;;;;;;;0.08;87.36;100948.66;5065615;28;20040;-79
2023/01/24 07:26:51;;;;;;;15.38;9.90;;;;;;;0.06;87.36;100948.78;5065410;28;20017;-79
2023/01/24 07:29:21;;;;;;;12.57;9.93;;;;;;;-0.13;86.67;100952.13;5051636;28;20031;-78
2023/01/24 07:31:50;;;;;;;15.32;10.82;;;;;;;-0.26;87.54;100951.47;5048719;28;20035;-79
2023/01/24 07:34:17;;;;;;;16.17;10.93;;;;;;;-0.53;88.19;100964.25;5053015;28;20518;-79
2023/01/24 07:36:44;;;;;;;18.88;10.60;;;;;;;-0.22;88.34;100962.56;5064421;28;20020;-79
2023/01/24 07:39:10;;;;;;;15.40;9.55;;;;;;;-0.51;87.18;100982.50;5037807;28;20032;-79
2023/01/24 07:41:36;;;;;;;14.10;9.88;;;;;;;-0.30;88.49;100960.56;5063276;28;20122;-78
2023/01/24 07:44:05;;;;;;;19.77;11.85;;;;;;;-0.41;87.79;100970.28;5043607;28;20469;-78
2023/01/24 07:46:35;;;;;;;14.80;10.32;;;;;;;-0.51;87.88;100958.88;5079093;28;20062;-79
2023/01/24 07:49:01;;;;;;;16.90;10.82;;;;;;;-0.07;88.18;100967.34;5079288;28;20102;-79
2023/01/24 07:51:27;;;;;;;12.02;9.35;;;;;;;0.14;87.45;100969.13;5074306;28;20034;-79
2023/01/24 07:53:52;;;;;;;15.32;10.70;;;;;;;0.30;88.71;100967.72;5068677;28;20520;-78
2023/01/24 07:56:17;;;;;;;14.75;9.88;;;;;;;0.05;87.01;100983.03;5037993;28;20074;-79
2023/01/24 07:58:43;;;;;;;12.35;8.90;;;;;;;-0.52;86.78;100965.06;5076188;28;20038;-78
2023/01/24 08:01:09;;;;;;;13.27;8.52;;;;;;;-0.62;87.28;100986.00;5029482;28;20428;-78
2023/01/24 08:03:34;;;;;;;15.07;8.60;;;;;;;-0.63;87.92;100981.69;5083250;28;20046;-78
2023/01/24 08:06:03;;;;;;;10.95;7.90;;;;;;;-0.64;88.21;100987.06;5058387;28;20448;-78
2023/01/24 08:08:28;;;;;;;14.10;8.73;;;;;;;-0.32;88.38;100987.88;5038260;28;20086;-78
2023/01/24 08:10:53;;;;;;;15.02;9.38;;;;;;;-0.71;87.87;100980.66;5054612;28;20040;-79
2023/01/24 08:13:19;;;;;;;10.88;7.85;;;;;;;-0.13;87.96;100983.59;5091511;28;20033;-79
2023/01/24 08:15:44;;;;;;;10.80;7.40;;;;;;;-0.55;86.80;100971.44;5043557;28;20037;-80
2023/01/24 08:18:10;;;;;;;9.93;7.25;;;;;;;-0.40;87.19;100985.91;5026674;28;20033;-79
2023/01/24 08:20:35;;;;;;;11.80;8.35;;;;;;;-0.34;87.49;100976.69;5051973;28;20561;-79
2023/01/24 08:23:00;;;;;;;12.15;8.32;;;;;;;-0.58;86.79;100987.41;5074681;28;20037;-81
2023/01/24 08:25:26;;;;;;;11.70;8.80;;;;;;;-0.46;88.14;100975.09;5056899;28;20028;-78
2023/01/24 08:27:53;;;;;;;10.32;7.25;;;;;;;-0.59;86.93;100988.34;5069004;28;20108;-81
2023/01/24 08:30:19;;;;;;;11.20;8.35;;;;;;;-0.36;86.78;100987.31;5065427;28;20036;-79
2023/01/24 08:32:44;;;;;;;13.52;9.02;;;;;;;-0.35;86.13;100982.91;5053628;28;20486;-79
2023/01/24 08:35:10;;;;;;;13.80;8.82;;;;;;;0.20;88.21;100990.44;5060614;28;20025;-79
2023/01/24 08:37:35;;;;;;;10.95;8.13;;;;;;;-0.18;86.27;100982.34;5042318;28;20028;-79
2023/01/24 08:40:01;;;;;;;13.05;9.07;;;;;;;-0.59;86.89;100995.41;5050104;28;20021;-78
2023/01/24 08:42:26;;;;;;;12.05;7.35;;;;;;;-0.26;86.68;100996.06;5031819;28;20028;-79
2023/01/24 08:44:51;;;;;;;13.63;8.52;;;;;;;0.22;87.52;101001.66;5041949;28;20067;-79
2023/01/24 08:47:17;;;;;;;13.43;8.90;;;;;;;0.52;87.46;100993.81;5049130;28;20056;-79
2023/01/24 08:49:43;;;;;;;12.75;9.38;;;;;;;0.13;86.29;100984.06;5059631;28;20576;-80
2023/01/24 08:52:09;;;;;;;12.52;9.38;;;;;;;0.22;86.27;100992.97;5072739;28;20067;-79
2023/01/24 08:54:35;;;;;;;15.50;10.13;;;;;;;0.02;85.06;101004.28;5076115;28;20059;-79
2023/01/24 08:57:05;;;;;;;13.70;8.80;;;;;;;-0.14;85.22;100989.84;5056234;28;20020;-79
2023/01/24 08:59:30;;;;;;;12.00;9.10;;;;;;;0.12;85.51;101005.19;5062535;28;20093;-79
2023/01/24 09:01:56;;;;;;;16.88;10.65;;;;;;;0.28;85.85;101016.06;5041168;28;20388;-79
2023/01/24 09:04:21;;;;;;;16.27;9.40;;;;;;;0.59;86.53;101009.88;5077765;28;20054;-79
2023/01/24 09:06:47;;;;;;;13.13;9.30;;;;;;;-0.07;85.32;101013.78;5087189;28;20036;-79
2023/01/24 09:09:12;;;;;;;10.13;7.97;;;;;;;0.08;85.97;101007.25;5060567;28;20116;-79
2023/01/24 09:11:38;;;;;;;9.45;7.75;;;;;;;-0.02;85.83;101020.28;5046765;28;20395;-79
2023/01/24 09:14:03;;;;;;;11.93;8.77;;;;;;;0.20;87.53;101016.69;5051384;28;20167;-79
2023/01/24 09:16:28;;;;;;;9.13;7.57;;;;;;;0.03;84.85;101019.06;5048648;28;20052;-79
2023/01/24 09:18:55;;;;;;;15.35;10.07;;;;;;;0.13;87.63;101004.22;5052132;28;20417;-79
2023/01/24 09:21:21;;;;;;;11.73;8.27;;;;;;;0.02;84.80;101014.78;5052437;28;20122;-79
2023/01/24 09:23:46;;;;;;;14.50;9.15;;;;;;;0.53;87.32;101002.50;5056677;28;20085;-79
2023/01/24 09:26:11;;;;;;;13.52;8.85;;;;;;;0.26;85.16;101003.06;5038894;28;20398;-79
2023/01/24 09:28:37;;;;;;;13.82;9.57;;;;;;;0.24;85.76;101012.84;5053071;28;20032;-79
2023/01/24 09:31:06;;;;;;;11.23;8.77;;;;;;;0.60;85.18;101017.63;5050422;28;20048;-79
2023/01/24 09:33:32;;;;;;;14.43;9.52;;;;;;;0.18;85.17;101018.63;5049952;28;20028;-79
2023/01/24 09:36:00;;;;;;;14.02;9.68;;;;;;;0.07;86.46;101000.31;5076686;28;20162;-79
2023/01/24 09:38:27;;;;;;;13.88;9.20;;;;;;;-0.18;84.67;101016.44;5054238;28;20520;-79
2023/01/24 09:41:07;;;;;;;13.88;9.90;;;;;;;0.08;84.85;101024.78;5059045;28;20032;-79
2023/01/24 09:43:43;;;;;;;12.70;9.38;;;;;;;0.75;86.42;101018.94;5069004;28;20035;-79
2023/01/24 09:46:18;;;;;;;12.98;8.77;;;;;;;0.39;85.35;101021.25;5046018;28;20179;-79
2023/01/24 09:48:48;;;;;;;11.55;9.32;;;;;;;0.56;84.71;101021.47;5059416;28;20040;-79
2023/01/24 09:51:21;;;;;;;12.77;9.60;;;;;;;0.23;83.97;101008.56;5065754;28;20028;-79
2023/01/24 09:53:53;;;;;;;14.77;8.68;;;;;;;0.62;85.45;101006.97;5077956;28;20099;-79
2023/01/24 09:56:30;;;;;;;12.48;9.18;;;;;;;0.84;85.25;101009.41;5053376;28;20020;-79
2023/01/24 09:59:21;;;;;;;16.48;10.95;;;;;;;0.87;84.30;101021.47;5052501;28;20097;-79
2023/01/24 10:01:48;;;;;;;17.23;11.27;;;;;;;0.79;84.20;100997.66;5081477;28;20506;-79
2023/01/24 10:04:28;;;;;;;14.68;10.75;;;;;;;0.57;83.40;101014.41;5035875;28;20115;-79
2023/01/24 10:07:13;;;;;;;14.63;10.93;;;;;;;0.44;83.75;101005.91;5052564;28;20020;-79
2023/01/24 10:09:38;;;;;;;13.85;9.57;;;;;;;0.37;84.68;101016.09;5082194;28;20056;-79
2023/01/24 10:12:25;;;;;;;14.95;9.93;;;;;;;0.25;85.47;101019.78;5059883;28;20020;-79
2023/01/24 10:15:26;;;;;;;17.23;10.75;;;;;;;0.98;85.52;101027.47;5054307;28;20385;-79
2023/01/24 10:18:08;;;;;;;15.45;11.52;;;;;;;0.99;84.18;101010.69;5073143;28;20032;-79
2023/01/24 10:21:11;;;;;;;14.27;10.40;;;;;;;0.74;84.17;101025.13;5077506;28;20507;-79
2023/01/24 10:23:41;;;;;;;16.48;10.60;;;;;;;0.26;84.63;101015.38;5071773;28;20020;-79
2023/01/24 10:26:19;;;;;;;13.50;9.95;;;;;;;0.25;85.43;101013.69;5042283;28;20033;-79
2023/01/24 10:28:50;;;;;;;15.00;10.88;;;;;;;0.30;85.70;101003.63;5061137;28;20012;-79
2023/01/24 10:31:27;;;;;;;14.73;10.38;;;;;;;0.67;84.59;101020.56;5062001;28;20054;-79
2023/01/24 10:33:58;;;;;;;14.13;9.95;;;;;;;0.63;83.66;101006.81;5072741;28;20016;-79
2023/01/24 10:36:32;;;;;;;12.82;9.73;;;;;;;0.39;84.27;101010.75;5090557;28;20028;-79
2023/01/24 10:38:58;;;;;;;14.13;9.52;;;;;;;0.19;84.57;101006.34;5053608;28;20020;-79
2023/01/24 10:41:25;;;;;;;13.77;10.23;;;;;;;0.96;85.67;101003.06;5057841;28;20039;-79
2023/01/24 10:44:13;;;;;;;14.93;10.60;;;;;;;0.90;84.84;101000.97;5052895;28;20419;-79
2023/01/24 10:47:12;;;;;;;16.10;10.70;;;;;;;0.76;83.16;100988.22;5054299;28;20078;-79
2023/01/24 10:49:41;;;;;;;12.15;8.38;;;;;;;0.64;83.18;101002.41;5056038;28;20035;-79
2023/01/24 10:52:10;;;;;;;13.85;9.48;;;;;;;0.15;82.83;100995.28;5073449;28;20104;-79
2023/01/24 10:54:43;;;;;;;13.90;10.07;;;;;;;0.52;84.45;101001.69;5078725;28;20035;-80
2023/01/24 10:57:30;;;;;;;13.98;9.77;;;;;;;0.21;83.70;101007.88;5053425;28;20431;-79
2023/01/24 11:00:01;;;;;;;16.08;10.23;;;;;;;-0.02;84.04;100995.81;5056919;28;20028;-79
2023/01/24 11:02:30;;;;;;;13.25;9.48;;;;;;;0.21;85.84;101005.25;5083026;28;20039;-79
2023/01/24 11:05:04;;;;;;;15.05;10.77;;;;;;;0.15;83.96;101000.53;5056997;28;20032;-79
2023/01/24 11:07:32;;;;;;;12.32;9.00;;;;;;;0.16;85.17;100991.66;5086448;28;20037;-80
2023/01/24 11:10:00;;;;;;;13.98;10.35;;;;;;;0.18;83.68;100997.63;5080861;28;20036;-79
2023/01/24 11:12:27;;;;;;;17.42;11.23;;;;;;;0.34;84.89;100998.00;5048580;28;20021;-79
2023/01/24 11:14:52;;;;;;;15.10;11.30;;;;;;;0.54;84.48;101001.56;5046557;28;20032;-79
2023/01/24 11:17:32;;;;;;;14.52;10.98;;;;;;;0.14;83.60;101001.47;5038035;28;20424;-79
2023/01/24 11:20:16;;;;;;;14.88;10.25;;;;;;;0.23;83.56;101010.38;5074403;28;20032;-79
2023/01/24 11:22:42;;;;;;;13.77;10.60;;;;;;;0.13;83.53;101005.06;5075714;28;20498;-79
2023/01/24 11:25:14;;;;;;;17.50;11.18;;;;;;;1.00;86.59;100998.41;5053661;28;20020;-82
2023/01/24 11:27:47;;;;;;;16.20;10.95;;;;;;;0.88;83.77;101000.28;5075285;28;20052;-79
2023/01/24 11:30:12;;;;;;;16.20;10.98;;;;;;;0.54;83.54;100991.88;5049747;28;20096;-79
2023/01/24 11:32:48;;;;;;;14.02;10.43;;;;;;;0.54;83.66;100994.50;5082682;28;20025;-79
2023/01/24 11:35:24;;;;;;;16.42;11.48;;;;;;;1.07;85.48;100991.63;5064729;28;20032;-79
2023/01/24 11:37:59;;;;;;;18.02;11.10;;;;;;;0.98;82.72;100990.66;5072086;28;20030;-79
2023/01/24 11:40:49;;;;;;;18.20;13.07;;;;;;;0.81;82.76;100985.19;5055364;28;20020;-79
2023/01/24 11:43:39;;;;;;;13.88;9.57;;;;;;;1.02;84.14;100989.41;5077605;28;20030;-79
2023/01/24 11:46:23;;;;;;;15.77;10.98;;;;;;;1.41;84.13;100974.50;5086671;28;20031;-79
2023/01/24 11:49:10;;;;;;;14.73;10.60;;;;;;;0.99;82.38;100973.06;5083729;28;20107;-79
2023/01/24 11:51:49;;;;;;;14.27;10.57;;;;;;;1.12;84.45;100982.34;5083964;28;20039;-79
2023/01/24 11:54:34;;;;;;;16.08;10.85;;;;;;;1.21;83.35;100973.66;5060144;28;20032;-79
2023/01/24 11:57:18;;;;;;;16.95;11.68;;;;;;;1.41;83.25;100970.09;5050981;28;20028;-79
2023/01/24 11:59:58;;;;;;;14.63;10.32;;;;;;;1.15;82.28;100963.69;5053849;28;20223;-79
2023/01/24 12:02:36;;;;;;;15.98;10.43;;;;;;;0.66;82.26;100963.69;5073624;28;20183;-79
2023/01/24 12:05:22;;;;;;;14.57;9.50;;;;;;;0.06;83.03;100955.81;5055826;28;20028;-79